createdAt,value
2022-11-13T00:03:15.343Z,102904.97
2022-11-13T00:08:31.029Z,102905.03
2022-11-13T00:13:47.929Z,102902.41
2022-11-13T00:19:03.109Z,102898.91
2022-11-13T00:24:18.367Z,102892.66
2022-11-13T00:29:34.560Z,102901.53
2022-11-13T00:34:49.761Z,102898.97
2022-11-13T00:40:05.347Z,102899.00
2022-11-13T00:45:21.247Z,102898.13
2022-11-13T00:50:42.890Z,102903.41
2022-11-13T00:55:59.926Z,102901.63
2022-11-13T01:01:17.151Z,102889.34
2022-11-13T01:06:34.804Z,102899.78
2022-11-13T01:11:49.949Z,102915.28
2022-11-13T01:17:05.911Z,102916.81
2022-11-13T01:22:21.506Z,102917.59
2022-11-13T01:27:39.766Z,102917.41
2022-11-13T01:32:55.777Z,102892.13
2022-11-13T01:38:14.309Z,102905.16
2022-11-13T01:43:30.820Z,102907.66
2022-11-13T01:48:50.724Z,102902.56
2022-11-13T01:54:07.452Z,102893.69
2022-11-13T01:59:24.002Z,102895.16
2022-11-13T02:04:39.869Z,102890.63
2022-11-13T02:09:57.565Z,102891.59
2022-11-13T02:15:14.653Z,102886.13
2022-11-13T02:20:35.367Z,102884.47
2022-11-13T02:25:53.054Z,102883.94
2022-11-13T02:31:12.195Z,102883.16
2022-11-13T02:36:30.144Z,102879.84
2022-11-13T02:41:46.255Z,102882.66
2022-11-13T02:47:05.871Z,102893.88
2022-11-13T02:52:24.443Z,102892.09
2022-11-13T02:57:40.481Z,102890.44
2022-11-13T03:02:56.269Z,102885.28
2022-11-13T03:08:11.415Z,102890.50
2022-11-13T03:13:29.631Z,102865.28
2022-11-13T03:18:45.013Z,102883.03
2022-11-13T03:24:03.268Z,102898.03
2022-11-13T03:29:19.298Z,102871.03
2022-11-13T03:34:34.771Z,102884.16
2022-11-13T03:39:49.863Z,102874.41
2022-11-13T03:45:06.020Z,102878.59
2022-11-13T03:50:21.377Z,102879.25
2022-11-13T03:55:36.820Z,102871.47
2022-11-13T04:00:54.453Z,102860.09
2022-11-13T04:06:09.798Z,102869.41
2022-11-13T04:11:25.292Z,102866.91
2022-11-13T04:16:41.265Z,102870.53
2022-11-13T04:21:56.247Z,102868.81
2022-11-13T04:27:11.630Z,102854.91
2022-11-13T04:32:28.161Z,102856.53
2022-11-13T04:37:43.395Z,102851.16
2022-11-13T04:42:58.531Z,102853.06
2022-11-13T04:48:15.455Z,102859.19
2022-11-13T04:53:31.059Z,102848.78
2022-11-13T04:58:46.645Z,102843.75
2022-11-13T05:04:03.169Z,102843.03
2022-11-13T05:09:19.101Z,102844.81
2022-11-13T05:14:40.212Z,102843.06
2022-11-13T05:19:56.064Z,102846.56
2022-11-13T05:25:11.287Z,102851.69
2022-11-13T05:30:26.847Z,102845.69
2022-11-13T05:35:42.897Z,102849.19
2022-11-13T05:41:04.459Z,102862.31
2022-11-13T05:46:22.630Z,102859.69
2022-11-13T05:51:39.055Z,102864.94
2022-11-13T05:56:54.512Z,102870.16
2022-11-13T06:02:15.576Z,102871.91
2022-11-13T06:07:35.191Z,102868.41
2022-11-13T06:12:50.534Z,102871.91
2022-11-13T06:18:07.132Z,102871.03
2022-11-13T06:23:23.251Z,102874.53
2022-11-13T06:28:38.709Z,102873.69
2022-11-13T06:33:59.161Z,102876.31
2022-11-13T06:39:15.375Z,102878.94
2022-11-13T06:44:32.027Z,102878.88
2022-11-13T06:49:48.625Z,102877.06
2022-11-13T06:55:05.375Z,102874.44
2022-11-13T07:00:20.864Z,102880.50
2022-11-13T07:05:36.327Z,102872.63
2022-11-13T07:10:58.185Z,102873.44
2022-11-13T07:16:18.472Z,102873.53
2022-11-13T07:21:36.118Z,102864.72
2022-11-13T07:26:52.024Z,102861.31
2022-11-13T07:32:07.682Z,102855.19
2022-11-13T07:37:22.857Z,102856.84
2022-11-13T07:42:39.097Z,102852.47
2022-11-13T07:47:59.745Z,102853.34
2022-11-13T07:53:20.777Z,102849.16
2022-11-13T07:58:36.841Z,102852.66
2022-11-13T08:03:52.022Z,102850.91
2022-11-13T08:09:07.090Z,102850.06
2022-11-13T08:14:23.076Z,102851.78
2022-11-13T08:19:38.215Z,102846.59
2022-11-13T08:24:53.586Z,102845.66
2022-11-13T08:30:10.537Z,102846.56
2022-11-13T08:35:29.413Z,102840.41
2022-11-13T08:40:45.163Z,102841.25
2022-11-13T08:46:01.259Z,102833.34
2022-11-13T08:51:18.851Z,102839.50
2022-11-13T08:56:34.116Z,102829.78
2022-11-13T09:01:50.546Z,102842.06
2022-11-13T09:07:06.836Z,102836.03
2022-11-13T09:12:22.944Z,102824.59
2022-11-13T09:17:41.232Z,102817.59
2022-11-13T09:22:56.855Z,102810.56
2022-11-13T09:28:12.261Z,102802.69
2022-11-13T09:33:28.331Z,102798.25
2022-11-13T09:38:43.723Z,102792.94
2022-11-13T09:44:04.930Z,102790.41
2022-11-13T09:49:25.578Z,102786.78
2022-11-13T09:54:40.947Z,102778.03
2022-11-13T09:59:59.939Z,102779.81
2022-11-13T10:05:21.282Z,102768.38
2022-11-13T10:10:57.951Z,102748.22
2022-11-13T10:16:18.696Z,102763.97
2022-11-13T10:21:42.508Z,102766.31
2022-11-13T10:26:58.859Z,102745.03
2022-11-13T10:32:20.310Z,102751.47
2022-11-13T10:37:45.446Z,102733.63
2022-11-13T10:43:14.364Z,102734.50
2022-11-13T10:48:33.660Z,102725.78
2022-11-13T10:53:55.565Z,102715.88
2022-11-13T10:59:12.553Z,102703.56
2022-11-13T11:04:27.829Z,102678.31
2022-11-13T11:09:46.215Z,102686.13
2022-11-13T11:15:16.319Z,102681.34
2022-11-13T11:20:40.504Z,102678.19
2022-11-13T11:26:00.122Z,102676.06
2022-11-13T11:31:21.350Z,102679.59
2022-11-13T11:36:41.837Z,102673.28
2022-11-13T11:42:01.006Z,102668.69
2022-11-13T11:47:18.130Z,102660.72
2022-11-13T11:52:48.063Z,102657.16
2022-11-13T11:58:06.759Z,102645.66
2022-11-13T12:03:40.687Z,102655.25
2022-11-13T12:09:02.318Z,102650.84
2022-11-13T12:14:23.178Z,102645.50
2022-11-13T12:19:43.600Z,102645.56
2022-11-13T12:25:09.071Z,102642.06
2022-11-13T12:30:28.981Z,102637.81
2022-11-13T12:35:47.960Z,102637.66
2022-11-13T12:41:08.665Z,102642.84
2022-11-13T12:46:32.706Z,102636.72
2022-11-13T12:51:53.918Z,102636.63
2022-11-13T12:57:27.256Z,102630.56
2022-11-13T13:02:56.556Z,102624.28
2022-11-13T13:08:31.505Z,102626.97
2022-11-13T13:13:50.126Z,102627.41
2022-11-13T13:19:22.690Z,102620.09
2022-11-13T13:24:39.385Z,102615.56
2022-11-13T13:29:54.771Z,102606.84
2022-11-13T13:35:14.654Z,102602.38
2022-11-13T13:40:36.267Z,102594.38
2022-11-13T13:45:57.266Z,102592.63
2022-11-13T13:51:17.221Z,102580.47
2022-11-13T13:56:32.562Z,102589.91
2022-11-13T14:01:53.538Z,102600.56
2022-11-13T14:07:24.711Z,102598.72
2022-11-13T14:12:47.671Z,102586.25
2022-11-13T14:18:07.297Z,102581.88
2022-11-13T14:23:27.401Z,102586.22
2022-11-13T14:28:44.733Z,102578.34
2022-11-13T14:34:01.039Z,102583.44
2022-11-13T14:39:21.895Z,102573.78
2022-11-13T14:44:40.345Z,102572.00
2022-11-13T14:49:55.892Z,102560.59
2022-11-13T14:55:23.978Z,102557.09
2022-11-13T15:00:39.301Z,102553.25
2022-11-13T15:05:54.904Z,102548.25
2022-11-13T15:11:14.165Z,102548.97
2022-11-13T15:16:30.814Z,102536.50
2022-11-13T15:22:05.593Z,102543.28
2022-11-13T15:27:22.797Z,102543.28
2022-11-13T15:32:41.117Z,102542.38
2022-11-13T15:37:56.701Z,102545.75
2022-11-13T15:43:21.699Z,102546.59
2022-11-13T15:48:36.923Z,102547.59
2022-11-13T15:53:54.101Z,102541.59
2022-11-13T15:59:13.096Z,102548.88
2022-11-13T16:04:50.524Z,102540.47
2022-11-13T16:10:04.380Z,102547.66
2022-11-13T16:15:20.877Z,102550.41
2022-11-13T16:20:38.540Z,102536.38
2022-11-13T16:25:57.175Z,102555.44
2022-11-13T16:31:13.319Z,102553.94
2022-11-13T16:36:30.703Z,102533.81
2022-11-13T16:41:46.485Z,102550.31
2022-11-13T16:47:02.757Z,102554.44
2022-11-13T16:52:17.944Z,102534.75
2022-11-13T16:57:33.393Z,102546.38
2022-11-13T17:02:50.384Z,102530.09
2022-11-13T17:08:13.471Z,102552.81
2022-11-13T17:13:28.745Z,102550.28
2022-11-13T17:18:50.438Z,102556.34
2022-11-13T17:24:08.904Z,102539.91
2022-11-13T17:29:26.079Z,102552.03
2022-11-13T17:34:48.665Z,102550.50
2022-11-13T17:40:04.466Z,102550.56
2022-11-13T17:45:20.050Z,102554.06
2022-11-13T17:50:35.927Z,102547.06
2022-11-13T17:55:55.107Z,102550.56
2022-11-13T18:01:11.880Z,102543.66
2022-11-13T18:06:28.254Z,102541.03
2022-11-13T18:11:43.747Z,102541.06
2022-11-13T18:16:58.967Z,102538.44
2022-11-13T18:22:15.392Z,102533.19
2022-11-13T18:27:30.692Z,102527.97
2022-11-13T18:32:46.053Z,102526.28
2022-11-13T18:38:01.960Z,102526.25
2022-11-13T18:43:17.842Z,102530.47
2022-11-13T18:48:34.013Z,102538.31
2022-11-13T18:53:50.562Z,102533.22
2022-11-13T18:59:08.833Z,102526.25
2022-11-13T19:04:24.584Z,102532.44
2022-11-13T19:09:45.308Z,102540.16
2022-11-13T19:15:02.259Z,102534.97
2022-11-13T19:20:18.083Z,102537.47
2022-11-13T19:25:33.985Z,102531.25
2022-11-13T19:30:53.802Z,102526.03
2022-11-13T19:36:10.095Z,102523.22
2022-11-13T19:41:29.556Z,102527.50
2022-11-13T19:46:44.982Z,102527.41
2022-11-13T19:52:00.678Z,102521.94
2022-11-13T19:57:18.220Z,102519.94
2022-11-13T20:02:35.368Z,102525.97
2022-11-13T20:07:50.753Z,102523.41
2022-11-13T20:13:06.874Z,102517.31
2022-11-13T20:18:21.965Z,102514.81
2022-11-13T20:23:37.437Z,102507.09
2022-11-13T20:28:54.720Z,102513.16
2022-11-13T20:34:14.057Z,102504.41
2022-11-13T20:40:11.873Z,102505.13
2022-11-13T20:45:27.999Z,102506.09
2022-11-13T20:50:44.216Z,102499.22
2022-11-13T20:56:00.821Z,102500.03
2022-11-13T21:01:17.531Z,102473.75
2022-11-13T21:06:32.750Z,102494.94
2022-11-13T21:11:48.481Z,102496.22
2022-11-13T21:17:05.663Z,102498.66
2022-11-13T21:22:20.856Z,102494.94
2022-11-13T21:27:38.650Z,102500.97
2022-11-13T21:32:54.818Z,102498.44
2022-11-13T21:38:10.152Z,102493.97
2022-11-13T21:43:25.650Z,102489.53
2022-11-13T21:48:44.615Z,102463.22
2022-11-13T21:54:00.147Z,102488.69
2022-11-13T21:59:15.698Z,102486.84
2022-11-13T22:04:31.467Z,102486.88
2022-11-13T22:09:46.855Z,102477.19
2022-11-13T22:15:01.900Z,102476.59
2022-11-13T22:20:17.828Z,102459.13
2022-11-13T22:25:34.047Z,102471.19
2022-11-13T22:30:49.101Z,102477.22
2022-11-13T22:36:06.572Z,102473.56
2022-11-13T22:41:23.613Z,102475.38
2022-11-13T22:46:39.741Z,102465.66
2022-11-13T22:51:55.856Z,102470.88
2022-11-13T22:57:13.603Z,102469.25
2022-11-13T23:02:28.659Z,102466.72
2022-11-13T23:07:44.798Z,102461.00
2022-11-13T23:12:59.922Z,102455.25
2022-11-13T23:18:17.877Z,102452.13
2022-11-13T23:23:33.942Z,102448.53
2022-11-13T23:28:49.154Z,102448.38
2022-11-13T23:34:04.553Z,102448.16
2022-11-13T23:39:20.244Z,102441.28
2022-11-13T23:44:35.713Z,102443.50
2022-11-13T23:49:50.805Z,102435.13
2022-11-13T23:55:07.336Z,102440.38
